Time;durP1;ratioP1;P1;durP2;ratioP2;P2;SDS_P1;SDS_P2;PMS_P1;PMS_P2;Temp;Humidity;BMP_temperature;BMP_pressure;BME280_temperature;BME280_humidity;BME280_pressure;Samples;Min_cycle;Max_cycle;Signal;HPM_P1;HPM_P2
2023/09/23 00:01:43;;;;;;;10.88;6.85;;;;;;;;;;12928768;23;20434;-88
2023/09/23 00:06:49;;;;;;;12.40;7.45;;;;;;;;;;12924537;23;20356;-88
2023/09/23 00:11:53;;;;;;;11.60;7.33;;;;;;;;;;12923398;23;20422;-88
2023/09/23 00:16:56;;;;;;;10.57;6.93;;;;;;;;;;12921335;22;20396;-88
2023/09/23 00:21:58;;;;;;;10.10;7.13;;;;;;;;;;12922078;23;20467;-88
2023/09/23 00:27:02;;;;;;;9.80;6.50;;;;;;;;;;12921565;23;20368;-88
2023/09/23 00:32:05;;;;;;;11.70;6.90;;;;;;;;;;12922532;23;20902;-88
2023/09/23 00:37:08;;;;;;;9.87;6.87;;;;;;;;;;12922138;23;20369;-88
2023/09/23 00:42:12;;;;;;;11.48;7.03;;;;;;;;;;12922888;23;20388;-88
2023/09/23 00:47:15;;;;;;;11.45;7.45;;;;;;;;;;12921995;23;20364;-88
2023/09/23 00:52:17;;;;;;;11.88;7.03;;;;;;;;;;12921943;23;20368;-88
2023/09/23 00:57:21;;;;;;;13.77;7.30;;;;;;;;;;12921033;23;20376;-88
2023/09/23 01:02:24;;;;;;;12.30;7.57;;;;;;;;;;12943685;23;20439;-88
2023/09/23 01:07:27;;;;;;;12.35;7.85;;;;;;;;;;12920517;23;20369;-88
2023/09/23 01:12:31;;;;;;;21.83;9.20;;;;;;;;;;12922711;22;20426;-88
2023/09/23 01:17:34;;;;;;;14.02;8.68;;;;;;;;;;12921477;23;20419;-87
2023/09/23 01:22:39;;;;;;;14.27;8.83;;;;;;;;;;12921127;23;20454;-88
2023/09/23 01:27:41;;;;;;;14.02;8.65;;;;;;;;;;12922207;23;20419;-89
2023/09/23 01:32:47;;;;;;;11.88;8.27;;;;;;;;;;12920307;23;20360;-89
2023/09/23 01:37:50;;;;;;;14.82;8.50;;;;;;;;;;12921916;23;20434;-88
2023/09/23 01:42:53;;;;;;;13.68;7.63;;;;;;;;;;12920560;23;20698;-88
2023/09/23 01:47:56;;;;;;;13.20;8.00;;;;;;;;;;12920571;23;20402;-88
2023/09/23 01:53:01;;;;;;;11.87;7.50;;;;;;;;;;12918601;23;20503;-88
2023/09/23 01:58:04;;;;;;;8.65;6.20;;;;;;;;;;12917499;23;20398;-88
2023/09/23 02:03:06;;;;;;;7.90;5.07;;;;;;;;;;12890328;23;20426;-88
2023/09/23 02:08:10;;;;;;;7.80;4.87;;;;;;;;;;12940540;23;20353;-89
2023/09/23 02:13:12;;;;;;;5.80;4.50;;;;;;;;;;12919374;22;20368;-88
2023/09/23 02:18:15;;;;;;;7.93;4.57;;;;;;;;;;12921209;23;20480;-89
2023/09/23 02:23:21;;;;;;;7.95;4.65;;;;;;;;;;12924402;23;20385;-88
2023/09/23 02:28:24;;;;;;;9.63;4.97;;;;;;;;;;12924867;23;20364;-88
2023/09/23 02:33:26;;;;;;;9.60;5.38;;;;;;;;;;12924361;23;20365;-88
2023/09/23 02:38:31;;;;;;;10.52;5.60;;;;;;;;;;12921339;23;20394;-89
2023/09/23 02:43:33;;;;;;;12.07;5.73;;;;;;;;;;12920673;23;20438;-89
2023/09/23 02:48:36;;;;;;;9.82;6.68;;;;;;;;;;12920339;23;20432;-89
2023/09/23 02:53:40;;;;;;;10.15;6.15;;;;;;;;;;12942505;23;20661;-88
2023/09/23 02:58:43;;;;;;;10.70;6.00;;;;;;;;;;12941846;23;20653;-89
2023/09/23 03:03:46;;;;;;;9.32;6.10;;;;;;;;;;12919801;23;20430;-88
2023/09/23 03:08:54;;;;;;;10.88;6.65;;;;;;;;;;12941416;23;20383;-88
2023/09/23 03:13:56;;;;;;;10.47;5.80;;;;;;;;;;12920859;22;20422;-88
2023/09/23 03:19:10;;;;;;;11.82;6.90;;;;;;;;;;12919452;23;20430;-87
2023/09/23 03:24:15;;;;;;;9.77;6.90;;;;;;;;;;12919871;23;20496;-87
2023/09/23 03:29:18;;;;;;;13.13;6.95;;;;;;;;;;12923728;23;20364;-88
2023/09/23 03:34:21;;;;;;;12.57;5.73;;;;;;;;;;12922713;23;20832;-88
2023/09/23 03:39:26;;;;;;;7.00;4.05;;;;;;;;;;12923246;23;20356;-88
2023/09/23 03:44:29;;;;;;;5.00;3.90;;;;;;;;;;12922939;23;20380;-88
2023/09/23 03:49:31;;;;;;;8.18;5.40;;;;;;;;;;12923219;23;20391;-89
2023/09/23 03:54:36;;;;;;;9.65;6.30;;;;;;;;;;12923096;23;20365;-89
2023/09/23 03:59:39;;;;;;;10.13;6.78;;;;;;;;;;12922796;23;20405;-89
2023/09/23 04:04:42;;;;;;;12.18;7.45;;;;;;;;;;12920491;23;20708;-89
2023/09/23 04:09:47;;;;;;;14.10;7.78;;;;;;;;;;12922713;23;20824;-88
2023/09/23 04:14:51;;;;;;;10.53;7.80;;;;;;;;;;12923507;22;20426;-89
2023/09/23 04:19:54;;;;;;;11.27;7.25;;;;;;;;;;12922053;23;20376;-89
2023/09/23 04:24:58;;;;;;;13.90;7.43;;;;;;;;;;12923373;23;20388;-88
2023/09/23 04:30:02;;;;;;;11.45;7.40;;;;;;;;;;12923339;23;20360;-85
2023/09/23 04:35:05;;;;;;;11.32;7.95;;;;;;;;;;12942983;23;20823;-87
2023/09/23 04:40:10;;;;;;;13.38;8.10;;;;;;;;;;12924556;23;20411;-88
2023/09/23 04:45:13;;;;;;;12.13;8.57;;;;;;;;;;12922939;23;20380;-87
2023/09/23 04:50:16;;;;;;;13.02;8.38;;;;;;;;;;12947739;23;20422;-88
2023/09/23 04:55:21;;;;;;;14.43;8.75;;;;;;;;;;12927739;23;20395;-87
2023/09/23 05:00:25;;;;;;;16.85;9.20;;;;;;;;;;12925210;23;20662;-87
2023/09/23 05:05:28;;;;;;;14.13;9.10;;;;;;;;;;12920161;23;20384;-88
2023/09/23 05:10:32;;;;;;;16.88;9.35;;;;;;;;;;12920881;23;20369;-89
2023/09/23 05:15:34;;;;;;;15.93;9.63;;;;;;;;;;12918694;22;20372;-89
2023/09/23 05:20:37;;;;;;;15.65;8.88;;;;;;;;;;12940475;23;20369;-89
2023/09/23 05:25:41;;;;;;;15.77;9.10;;;;;;;;;;12920309;23;20384;-88
2023/09/23 05:30:44;;;;;;;18.27;9.83;;;;;;;;;;12920163;23;20376;-88
2023/09/23 05:35:47;;;;;;;14.47;9.13;;;;;;;;;;12919943;23;20369;-88
2023/09/23 05:40:51;;;;;;;15.33;9.60;;;;;;;;;;12922601;23;20736;-88
2023/09/23 05:45:54;;;;;;;17.60;10.30;;;;;;;;;;12918987;23;20449;-88
2023/09/23 05:51:04;;;;;;;15.88;8.98;;;;;;;;;;12915977;23;20376;-88
2023/09/23 05:56:08;;;;;;;11.97;8.37;;;;;;;;;;12908098;23;20368;-88
2023/09/23 06:01:12;;;;;;;12.00;7.50;;;;;;;;;;12915722;23;20987;-89
2023/09/23 06:06:15;;;;;;;10.60;6.60;;;;;;;;;;12938047;23;20759;-87
2023/09/23 06:11:19;;;;;;;10.33;6.27;;;;;;;;;;12940838;23;20356;-88
2023/09/23 06:16:24;;;;;;;9.35;5.90;;;;;;;;;;12968858;22;20382;-88
2023/09/23 06:21:27;;;;;;;8.45;5.95;;;;;;;;;;12981085;22;20359;-87
2023/09/23 06:26:34;;;;;;;9.53;5.90;;;;;;;;;;12981685;22;20456;-88
2023/09/23 06:31:37;;;;;;;8.45;6.10;;;;;;;;;;12983642;22;20367;-88
2023/09/23 06:36:39;;;;;;;7.60;5.10;;;;;;;;;;12979956;22;20371;-88
2023/09/23 06:41:43;;;;;;;9.83;5.87;;;;;;;;;;12998304;22;20363;-88
2023/09/23 06:46:46;;;;;;;9.18;5.40;;;;;;;;;;12980342;22;20382;-88
2023/09/23 06:51:48;;;;;;;10.73;5.20;;;;;;;;;;12982204;22;21000;-88
2023/09/23 06:56:53;;;;;;;8.63;5.13;;;;;;;;;;12977360;22;20447;-85
2023/09/23 07:01:56;;;;;;;6.70;4.73;;;;;;;;;;12971483;22;20379;-85
2023/09/23 07:06:58;;;;;;;9.63;5.25;;;;;;;;;;12975626;22;20417;-88
2023/09/23 07:12:02;;;;;;;12.18;4.70;;;;;;;;;;13007880;22;20367;-89
2023/09/23 07:17:06;;;;;;;8.07;4.22;;;;;;;;;;12984491;22;20424;-88
2023/09/23 07:22:08;;;;;;;7.30;4.15;;;;;;;;;;12985841;22;20358;-90
2023/09/23 07:27:12;;;;;;;7.68;4.22;;;;;;;;;;12987584;22;20366;-90
2023/09/23 07:32:15;;;;;;;5.97;3.53;;;;;;;;;;12988344;22;20363;-89
2023/09/23 07:37:17;;;;;;;6.10;3.38;;;;;;;;;;12986637;22;20363;-90
2023/09/23 07:42:21;;;;;;;5.97;4.13;;;;;;;;;;12988340;22;20363;-90
2023/09/23 07:47:23;;;;;;;5.55;4.10;;;;;;;;;;12987339;22;20427;-89
2023/09/23 07:52:26;;;;;;;4.80;3.67;;;;;;;;;;12986949;22;20409;-90
2023/09/23 07:57:30;;;;;;;5.28;3.80;;;;;;;;;;12987779;22;20425;-90
2023/09/23 08:02:32;;;;;;;7.95;4.32;;;;;;;;;;12987234;22;20397;-90
2023/09/23 08:07:35;;;;;;;6.45;4.07;;;;;;;;;;12984796;22;20359;-89
2023/09/23 08:12:40;;;;;;;9.00;4.03;;;;;;;;;;13006844;22;20829;-89
2023/09/23 08:17:42;;;;;;;7.80;3.27;;;;;;;;;;12986626;22;20355;-90
2023/09/23 08:22:46;;;;;;;6.90;3.67;;;;;;;;;;12986431;22;20378;-90
2023/09/23 08:27:50;;;;;;;7.63;3.17;;;;;;;;;;12986779;22;20837;-88
2023/09/23 08:32:53;;;;;;;6.60;2.80;;;;;;;;;;12985810;22;20362;-89
2023/09/23 08:37:55;;;;;;;5.95;3.22;;;;;;;;;;12986833;22;20362;-90
2023/09/23 08:43:04;;;;;;;6.85;4.10;;;;;;;;;;12994252;22;20433;-90
2023/09/23 08:48:07;;;;;;;7.50;3.63;;;;;;;;;;12987276;22;20366;-90
2023/09/23 08:53:11;;;;;;;7.55;3.33;;;;;;;;;;12984766;22;20690;-90
2023/09/23 08:58:15;;;;;;;5.00;3.07;;;;;;;;;;12989342;22;20392;-90
2023/09/23 09:03:18;;;;;;;6.80;4.15;;;;;;;;;;12987996;22;20409;-90
2023/09/23 09:08:20;;;;;;;6.13;3.20;;;;;;;;;;12981001;22;20367;-88
2023/09/23 09:13:24;;;;;;;6.50;3.10;;;;;;;;;;12980504;22;20432;-88
2023/09/23 09:18:29;;;;;;;5.07;2.90;;;;;;;;;;13003283;22;20371;-88
2023/09/23 09:23:32;;;;;;;6.07;3.20;;;;;;;;;;12983204;22;20826;-89
2023/09/23 09:28:38;;;;;;;7.38;3.00;;;;;;;;;;12984516;22;20401;-88
2023/09/23 09:33:43;;;;;;;6.37;2.83;;;;;;;;;;12983699;22;20428;-86
2023/09/23 09:38:50;;;;;;;6.22;2.78;;;;;;;;;;12982558;22;20396;-88
2023/09/23 09:43:55;;;;;;;5.75;2.40;;;;;;;;;;12981011;22;20504;-87
2023/09/23 09:48:58;;;;;;;4.33;2.40;;;;;;;;;;12979220;22;20370;-85
2023/09/23 09:54:04;;;;;;;5.07;2.30;;;;;;;;;;12971572;22;20363;-82
2023/09/23 09:59:08;;;;;;;7.03;2.33;;;;;;;;;;12991724;22;20359;-81
2023/09/23 10:04:11;;;;;;;6.70;2.53;;;;;;;;;;12970748;22;20416;-80
2023/09/23 10:09:16;;;;;;;8.35;2.92;;;;;;;;;;12974400;22;20359;-85
2023/09/23 10:14:20;;;;;;;5.30;2.83;;;;;;;;;;12976203;22;20432;-87
2023/09/23 10:19:31;;;;;;;4.30;2.40;;;;;;;;;;12999429;22;20432;-87
2023/09/23 10:24:34;;;;;;;4.63;2.70;;;;;;;;;;12976306;22;20912;-87
2023/09/23 10:29:48;;;;;;;5.40;2.50;;;;;;;;;;12976431;22;20744;-87
2023/09/23 10:34:52;;;;;;;7.90;3.28;;;;;;;;;;12976850;22;20401;-85
2023/09/23 10:39:54;;;;;;;5.72;3.28;;;;;;;;;;12976963;22;20742;-87
2023/09/23 10:45:00;;;;;;;4.47;3.40;;;;;;;;;;12976138;22;20386;-88
2023/09/23 10:50:04;;;;;;;7.03;2.67;;;;;;;;;;12976523;22;20428;-87
2023/09/23 10:55:09;;;;;;;4.33;2.77;;;;;;;;;;12997016;22;20354;-87
2023/09/23 11:00:20;;;;;;;5.77;2.70;;;;;;;;;;12998195;22;20385;-86
2023/09/23 11:05:24;;;;;;;5.75;2.90;;;;;;;;;;12994507;22;20428;-88
2023/09/23 11:10:28;;;;;;;6.20;2.87;;;;;;;;;;12995621;22;20421;-86
2023/09/23 11:15:32;;;;;;;5.30;2.72;;;;;;;;;;12973018;22;20428;-86
2023/09/23 11:20:35;;;;;;;5.82;2.35;;;;;;;;;;12975430;22;20363;-86
2023/09/23 11:25:41;;;;;;;4.22;2.70;;;;;;;;;;12975517;22;20374;-88
2023/09/23 11:30:45;;;;;;;3.27;2.10;;;;;;;;;;12975388;22;20396;-88
2023/09/23 11:35:48;;;;;;;5.60;2.30;;;;;;;;;;12965764;22;20420;-88
2023/09/23 11:40:51;;;;;;;4.45;1.98;;;;;;;;;;12970287;22;20412;-88
2023/09/23 11:45:57;;;;;;;3.60;1.90;;;;;;;;;;12952564;22;20386;-89
2023/09/23 11:50:59;;;;;;;3.73;1.87;;;;;;;;;;12971309;22;20367;-88
2023/09/23 11:56:02;;;;;;;4.40;1.90;;;;;;;;;;12972306;22;20435;-88
2023/09/23 12:01:06;;;;;;;5.00;1.90;;;;;;;;;;12971267;22;20432;-89
2023/09/23 12:06:09;;;;;;;3.30;1.70;;;;;;;;;;12983826;22;20430;-89
2023/09/23 12:11:11;;;;;;;3.40;2.08;;;;;;;;;;12969323;22;20382;-85
2023/09/23 12:16:15;;;;;;;3.90;1.90;;;;;;;;;;12966543;22;20783;-88
2023/09/23 12:21:18;;;;;;;3.22;2.20;;;;;;;;;;12965408;22;20444;-88
2023/09/23 12:26:20;;;;;;;3.37;1.97;;;;;;;;;;12982466;22;20374;-88
2023/09/23 12:31:25;;;;;;;3.50;2.03;;;;;;;;;;12967081;22;20371;-88
2023/09/23 12:36:27;;;;;;;3.75;1.90;;;;;;;;;;12969485;22;20853;-88
2023/09/23 12:41:30;;;;;;;3.60;2.10;;;;;;;;;;12969848;22;20854;-87
2023/09/23 12:46:34;;;;;;;2.50;1.70;;;;;;;;;;12974208;22;20416;-90
2023/09/23 12:51:38;;;;;;;3.15;2.08;;;;;;;;;;12980732;22;20370;-88
2023/09/23 12:56:41;;;;;;;4.88;2.00;;;;;;;;;;12973296;22;20370;-89
2023/09/23 13:01:44;;;;;;;3.50;1.83;;;;;;;;;;12974308;22;20761;-90
2023/09/23 13:06:47;;;;;;;4.28;1.65;;;;;;;;;;12973919;22;20390;-89
2023/09/23 13:11:50;;;;;;;2.65;1.60;;;;;;;;;;12988207;22;20378;-89
2023/09/23 13:16:53;;;;;;;3.28;1.75;;;;;;;;;;12990869;22;20421;-88
2023/09/23 13:21:56;;;;;;;2.67;1.55;;;;;;;;;;12975375;22;20452;-89
2023/09/23 13:26:58;;;;;;;4.30;1.77;;;;;;;;;;12975207;22;20382;-83
2023/09/23 13:32:02;;;;;;;4.30;1.83;;;;;;;;;;12972966;22;20661;-88
2023/09/23 13:37:04;;;;;;;2.38;1.60;;;;;;;;;;12973539;22;20359;-87
2023/09/23 13:42:08;;;;;;;4.30;1.90;;;;;;;;;;12971433;22;20486;-87
2023/09/23 13:47:11;;;;;;;5.15;2.30;;;;;;;;;;12975810;22;20420;-88
2023/09/23 13:52:14;;;;;;;3.47;1.70;;;;;;;;;;12982435;22;20362;-89
2023/09/23 13:57:16;;;;;;;3.03;1.85;;;;;;;;;;12974636;22;20378;-89
2023/09/23 14:02:21;;;;;;;4.27;1.90;;;;;;;;;;12974156;22;20379;-89
2023/09/23 14:07:23;;;;;;;5.30;3.15;;;;;;;;;;12988996;22;20409;-89
2023/09/23 14:12:26;;;;;;;4.63;2.90;;;;;;;;;;12949016;22;20371;-89
2023/09/23 14:17:30;;;;;;;6.82;2.95;;;;;;;;;;12976790;22;20440;-88
2023/09/23 14:22:33;;;;;;;3.75;2.50;;;;;;;;;;12992783;22;20375;-89
2023/09/23 14:27:35;;;;;;;5.90;2.47;;;;;;;;;;12975666;22;20378;-89
2023/09/23 14:32:39;;;;;;;2.67;1.80;;;;;;;;;;12975771;22;20729;-89
2023/09/23 14:37:41;;;;;;;4.77;2.63;;;;;;;;;;12979336;22;20382;-89
2023/09/23 14:42:44;;;;;;;3.30;2.00;;;;;;;;;;12977839;22;20405;-89
2023/09/23 14:47:49;;;;;;;4.70;1.70;;;;;;;;;;12976287;22;20382;-89
2023/09/23 14:52:51;;;;;;;4.15;1.90;;;;;;;;;;12979966;22;20448;-89
2023/09/23 14:57:55;;;;;;;6.10;3.93;;;;;;;;;;12981418;22;20443;-87
2023/09/23 15:02:58;;;;;;;3.55;1.05;;;;;;;;;;12972777;22;20378;-87
2023/09/23 15:08:01;;;;;;;5.45;1.17;;;;;;;;;;12971568;22;20383;-86
2023/09/23 15:13:03;;;;;;;9.05;2.20;;;;;;;;;;12969645;22;20374;-86
2023/09/23 15:18:08;;;;;;;8.05;2.95;;;;;;;;;;12965532;22;21159;-86
2023/09/23 15:23:11;;;;;;;5.18;1.30;;;;;;;;;;12971967;22;20375;-86
2023/09/23 15:28:15;;;;;;;2.20;1.05;;;;;;;;;;12974467;22;20408;-87
2023/09/23 15:33:18;;;;;;;2.10;0.82;;;;;;;;;;12976538;22;20375;-88
2023/09/23 15:38:21;;;;;;;1.63;0.88;;;;;;;;;;12970904;22;20436;-86
2023/09/23 15:43:24;;;;;;;4.78;1.63;;;;;;;;;;12980538;22;20496;-93
2023/09/23 15:48:28;;;;;;;1.63;0.93;;;;;;;;;;12977354;22;20911;-91
2023/09/23 15:53:30;;;;;;;2.25;0.73;;;;;;;;;;12979248;22;20378;-91
2023/09/23 15:58:33;;;;;;;1.50;0.98;;;;;;;;;;12980050;22;20433;-90
2023/09/23 16:03:37;;;;;;;2.30;0.83;;;;;;;;;;12977649;22;20432;-91
2023/09/23 16:08:39;;;;;;;1.38;0.90;;;;;;;;;;12986464;22;20386;-91
2023/09/23 16:13:42;;;;;;;1.75;0.90;;;;;;;;;;13006872;22;20518;-95
2023/09/23 16:18:46;;;;;;;1.43;1.00;;;;;;;;;;13003539;22;20456;-95
2023/09/23 16:23:48;;;;;;;2.10;1.10;;;;;;;;;;12980977;22;20440;-91
2023/09/23 16:28:50;;;;;;;2.20;1.50;;;;;;;;;;12983813;22;20432;-91
2023/09/23 16:33:54;;;;;;;3.05;1.80;;;;;;;;;;12982310;22;20363;-94
2023/09/23 16:38:57;;;;;;;2.70;1.20;;;;;;;;;;13006853;22;20367;-95
2023/09/23 16:43:59;;;;;;;2.17;1.10;;;;;;;;;;12984065;22;20366;-95
2023/09/23 16:49:03;;;;;;;2.00;1.30;;;;;;;;;;13002376;22;20995;-93
2023/09/23 16:54:06;;;;;;;5.40;1.67;;;;;;;;;;13002746;22;20424;-90
2023/09/23 16:59:08;;;;;;;4.28;2.00;;;;;;;;;;12979443;22;20370;-94
2023/09/23 17:04:12;;;;;;;3.97;1.50;;;;;;;;;;13002794;22;20362;-94
2023/09/23 17:09:15;;;;;;;3.30;1.30;;;;;;;;;;12990523;22;20927;-94
2023/09/23 17:14:20;;;;;;;1.90;0.90;;;;;;;;;;12993877;22;20358;-94
2023/09/23 17:19:25;;;;;;;1.85;1.00;;;;;;;;;;12975432;22;20367;-94
2023/09/23 17:24:29;;;;;;;1.88;0.68;;;;;;;;;;12976731;22;20366;-94
2023/09/23 17:29:33;;;;;;;1.60;1.00;;;;;;;;;;12983999;22;20386;-92
2023/09/23 17:34:36;;;;;;;1.55;1.00;;;;;;;;;;12976813;22;20903;-93
2023/09/23 17:39:39;;;;;;;3.13;1.00;;;;;;;;;;12988484;22;20370;-94
2023/09/23 17:44:44;;;;;;;1.75;0.80;;;;;;;;;;13005671;22;20390;-93
2023/09/23 17:49:49;;;;;;;4.82;1.50;;;;;;;;;;12990349;22;20378;-94
2023/09/23 17:54:52;;;;;;;2.25;1.10;;;;;;;;;;13002597;22;20359;-94
2023/09/23 17:59:55;;;;;;;1.20;0.80;;;;;;;;;;12989066;22;20846;-95
2023/09/23 18:04:59;;;;;;;2.92;0.90;;;;;;;;;;13013966;22;20496;-92
2023/09/23 18:10:03;;;;;;;1.95;0.98;;;;;;;;;;12983314;22;20412;-90
2023/09/23 18:15:07;;;;;;;2.83;1.30;;;;;;;;;;12974769;22;20897;-92
2023/09/23 18:20:12;;;;;;;1.90;1.10;;;;;;;;;;12973369;22;20842;-92
2023/09/23 18:25:15;;;;;;;4.23;0.90;;;;;;;;;;12984240;22;20370;-91
2023/09/23 18:30:19;;;;;;;2.27;0.80;;;;;;;;;;12974588;22;20522;-92
2023/09/23 18:35:23;;;;;;;1.70;0.40;;;;;;;;;;12974750;22;20846;-90
2023/09/23 18:40:26;;;;;;;2.63;0.70;;;;;;;;;;12976778;22;20378;-93
2023/09/23 18:45:28;;;;;;;1.75;0.60;;;;;;;;;;12977658;22;20440;-93
2023/09/23 18:50:32;;;;;;;3.38;0.82;;;;;;;;;;12977449;22;20408;-92
2023/09/23 18:55:37;;;;;;;1.00;0.85;;;;;;;;;;12978730;22;20393;-90
2023/09/23 19:00:43;;;;;;;2.15;0.90;;;;;;;;;;12981018;22;20436;-91
2023/09/23 19:05:48;;;;;;;1.33;0.68;;;;;;;;;;12972817;22;20379;-90
2023/09/23 19:10:51;;;;;;;2.28;0.70;;;;;;;;;;12983071;22;20699;-92
2023/09/23 19:15:53;;;;;;;1.97;0.80;;;;;;;;;;12978849;22;20877;-91
2023/09/23 19:20:57;;;;;;;1.13;0.75;;;;;;;;;;12980129;22;20907;-92
2023/09/23 19:26:00;;;;;;;1.08;0.60;;;;;;;;;;12979139;22;20511;-91
2023/09/23 19:31:06;;;;;;;2.42;0.80;;;;;;;;;;12979648;22;20382;-92
2023/09/23 19:36:10;;;;;;;1.80;0.90;;;;;;;;;;12980593;22;20412;-91
2023/09/23 19:41:12;;;;;;;1.70;1.17;;;;;;;;;;13007036;22;20412;-92
2023/09/23 19:46:15;;;;;;;1.58;1.15;;;;;;;;;;12976627;22;20412;-92
2023/09/23 19:51:25;;;;;;;2.10;1.00;;;;;;;;;;12979055;22;20374;-93
2023/09/23 19:56:28;;;;;;;1.70;0.90;;;;;;;;;;13019322;22;20431;-92
2023/09/23 20:01:31;;;;;;;2.83;0.98;;;;;;;;;;12986800;22;20679;-89
2023/09/23 20:06:35;;;;;;;1.95;0.93;;;;;;;;;;12979927;22;20408;-91
2023/09/23 20:11:37;;;;;;;1.47;1.10;;;;;;;;;;12977889;22;20490;-92
2023/09/23 20:16:41;;;;;;;3.00;0.80;;;;;;;;;;12980939;22;20432;-90
2023/09/23 20:21:45;;;;;;;2.00;0.90;;;;;;;;;;12979142;22;20409;-91
2023/09/23 20:26:49;;;;;;;3.57;1.00;;;;;;;;;;12980568;22;20383;-92
2023/09/23 20:31:51;;;;;;;1.20;0.70;;;;;;;;;;12979452;22;20378;-92
2023/09/23 20:36:57;;;;;;;1.42;0.80;;;;;;;;;;12978855;22;20866;-92
2023/09/23 20:42:00;;;;;;;1.40;0.45;;;;;;;;;;12980372;22;20382;-93
2023/09/23 20:47:03;;;;;;;1.90;0.60;;;;;;;;;;12976735;22;20742;-92
2023/09/23 20:52:07;;;;;;;1.08;0.40;;;;;;;;;;12977514;22;20830;-92
2023/09/23 20:57:09;;;;;;;1.30;0.60;;;;;;;;;;12977709;22;20374;-91
2023/09/23 21:02:12;;;;;;;0.90;0.70;;;;;;;;;;12976295;22;20392;-91
2023/09/23 21:07:17;;;;;;;1.90;0.50;;;;;;;;;;12977626;22;20421;-91
2023/09/23 21:12:19;;;;;;;1.43;0.53;;;;;;;;;;12980847;22;20374;-91
2023/09/23 21:17:22;;;;;;;0.85;0.52;;;;;;;;;;12978676;22;20440;-91
2023/09/23 21:22:27;;;;;;;2.05;0.80;;;;;;;;;;12985416;22;20368;-91
2023/09/23 21:27:29;;;;;;;1.73;0.77;;;;;;;;;;12999020;22;20412;-94
2023/09/23 21:32:32;;;;;;;1.70;0.80;;;;;;;;;;13015896;22;20362;-87
2023/09/23 21:37:35;;;;;;;1.60;0.77;;;;;;;;;;12982267;22;20416;-88
2023/09/23 21:42:38;;;;;;;1.13;0.65;;;;;;;;;;12984816;22;20374;-88
2023/09/23 21:47:40;;;;;;;2.20;0.90;;;;;;;;;;12990972;22;20409;-88
2023/09/23 21:52:44;;;;;;;1.48;0.70;;;;;;;;;;13005912;22;20363;-88
2023/09/23 21:57:47;;;;;;;1.55;0.75;;;;;;;;;;12984722;22;20367;-88
2023/09/23 22:02:50;;;;;;;1.00;0.40;;;;;;;;;;12984121;22;20880;-88
2023/09/23 22:07:58;;;;;;;1.40;0.40;;;;;;;;;;12985011;22;20846;-88
2023/09/23 22:13:01;;;;;;;0.60;0.50;;;;;;;;;;13004813;22;20400;-88
2023/09/23 22:18:08;;;;;;;3.53;0.47;;;;;;;;;;12980671;22;20367;-88
2023/09/23 22:23:13;;;;;;;0.47;0.20;;;;;;;;;;12983524;22;20425;-86
2023/09/23 22:28:15;;;;;;;1.10;0.20;;;;;;;;;;12983639;22;20390;-88
2023/09/23 22:33:18;;;;;;;2.00;0.30;;;;;;;;;;12982953;22;20782;-88
2023/09/23 22:38:22;;;;;;;1.90;0.20;;;;;;;;;;12982424;22;20401;-88
2023/09/23 22:43:24;;;;;;;0.15;0.10;;;;;;;;;;13005125;22;20363;-88
2023/09/23 22:48:27;;;;;;;2.00;0.10;;;;;;;;;;12979047;22;20927;-88
2023/09/23 22:53:31;;;;;;;0.40;0.10;;;;;;;;;;12979975;22;20366;-88
2023/09/23 22:58:33;;;;;;;0.40;0.10;;;;;;;;;;13002405;22;20363;-88
2023/09/23 23:03:36;;;;;;;0.52;0.20;;;;;;;;;;13003205;22;20371;-87
2023/09/23 23:08:40;;;;;;;0.43;0.17;;;;;;;;;;13004547;22;20378;-88
2023/09/23 23:13:43;;;;;;;0.95;0.20;;;;;;;;;;12982604;22;20448;-87
2023/09/23 23:18:45;;;;;;;0.60;0.20;;;;;;;;;;12991090;22;20429;-88
2023/09/23 23:23:49;;;;;;;2.10;0.30;;;;;;;;;;12982869;22;20371;-88
2023/09/23 23:28:53;;;;;;;0.45;0.20;;;;;;;;;;12984316;22;20378;-88
2023/09/23 23:33:56;;;;;;;1.38;0.30;;;;;;;;;;12984566;22;20403;-88
2023/09/23 23:39:05;;;;;;;0.47;0.45;;;;;;;;;;12982904;22;20363;-88
2023/09/23 23:44:08;;;;;;;1.20;0.20;;;;;;;;;;12985861;22;20367;-88
2023/09/23 23:49:13;;;;;;;1.20;0.40;;;;;;;;;;12987084;22;20383;-88
2023/09/23 23:54:18;;;;;;;1.03;0.40;;;;;;;;;;12986969;22;20417;-88
2023/09/23 23:59:20;;;;;;;0.80;0.40;;;;;;;;;;13007952;22;20424;-87
